Flight Track Log - Related Links

Times and Time Zones

All times are in EST time to prevent confusion due to time zone crossing. See the LJY630 flight status page for this flight to view local times or setup timezone preferences in your user account.

Time Position Orientation Groundspeed Altitude Reporting Facility
EST Latitude Longitude Course Direction KTS MPH feet Rate Location/Type
Tue 04:21:04 PM 39.6703 -79.9208 34° Northeast 167 192 25,000  Level Cleveland Center
Tue 04:22:05 PM 39.7147 -79.8819 34° Northeast 257 296 5,600 -8,000 Descending Cleveland Center
Tue 04:23:07 PM 39.7589 -79.8094 52° Northeast 259 298 8,600 3,707 Climbing Cleveland Center
Tue 04:24:08 PM 39.8133 -79.7064 55° Northeast 295 339 13,200 3,610 Climbing Cleveland Center
Tue 04:25:10 PM 39.8406 -79.5828 74° East 360 414 16,000 2,341 Climbing Cleveland Center
Tue 04:26:11 PM 39.8667 -79.4461 76° East 382 440 18,000 2,049 Climbing Cleveland Center
Tue 04:27:13 PM 39.8956 -79.2989 76° East 410 472 20,200 1,951 Climbing Cleveland Center
Tue 04:28:14 PM 39.9250 -79.1419 76° East 436 502 22,000 1,377 Climbing Cleveland Center
Tue 04:29:15 PM 39.9603 -78.9589 76° East 472 543 23,000 488 Climbing Cleveland Center
Tue 04:30:17 PM 39.9939 -78.7839 76° East 496 571 23,000  Level Cleveland Center
Tue 04:31:18 PM 40.0269 -78.6089 76° East 500 575 23,000  Level Cleveland Center
Tue 04:32:19 PM 40.0592 -78.4386 76° East 491 565 23,000  Level Cleveland Center
Tue 04:33:21 PM 40.0914 -78.2672 76° East 490 564 23,000  Level Cleveland Center
Tue 04:34:22 PM 40.1278 -78.0619 77° East 488 562 23,000  Level Cleveland Center
Tue 04:35:23 PM 40.1583 -77.8906 77° East 489 563 23,000 -98 Level Cleveland Center
Tue 04:36:24 PM 40.1819 -77.7147 80° East 492 566 22,800 -488 Descending Cleveland Center
Tue 04:37:26 PM 40.1639 -77.5417 98° East 482 555 22,000 -927 Descending Cleveland Center
Tue 04:38:27 PM 40.1228 -77.3733 108° East 484 557 20,900 -1,131 Descending Cleveland Center
Tue 04:39:28 PM 40.0822 -77.2058 108° East 483 556 19,700 -1,426 Descending Cleveland Center
Tue 04:40:29 PM 40.0433 -77.0497 108° East 456 525 18,000 -1,525 Descending Cleveland Center
Tue 04:41:30 PM 40.0072 -76.8994 107° East 436 502 16,600 -1,512 Descending Cleveland Center
Tue 04:42:32 PM 39.9708 -76.7522 108° East 429 494 14,900 -1,561 Descending Cleveland Center
Tue 04:43:33 PM 39.9342 -76.6075 108° East 424 488 13,400 -1,230 Descending Cleveland Center
Tue 04:44:34 PM 39.8992 -76.4703 108° East 407 468 12,400 -984 Descending Cleveland Center
Tue 04:45:35 PM 39.8675 -76.3422 108° East 383 441 11,400 -1,091 Descending Cleveland Center
Tue 04:46:24 PM 39.8333 -76.2167 109° East 361 415 10,400 -991 Descending Philadelphia TRACON
Tue 04:47:24 PM 39.8167 -76.1167 102° East 313 360 9,600 -1,250 Descending Philadelphia TRACON
Tue 04:48:24 PM 39.7833 -76.0167 113° Southeast 250 288 7,900 -1,550 Descending Philadelphia TRACON
Tue 04:49:24 PM 39.7667 -75.9333 105° East 229 264 6,500 -1,650 Descending Philadelphia TRACON
Tue 04:50:24 PM 39.7500 -75.8667 108° East 228 262 4,600 -1,250 Descending Philadelphia TRACON
Tue 04:51:24 PM 39.7333 -75.7833 105° East 226 260 4,000 -316 Descending Philadelphia TRACON
Tue 04:52:18 PM 39.7333 -75.7167 90° East 224 258 4,000 -100 Level Philadelphia TRACON
Tue 04:53:24 PM 39.7333 -75.6167 90° East 221 254 3,800 -550 Descending Philadelphia TRACON
Tue 04:54:18 PM 39.7333 -75.5500 90° East 213 245 2,900 -1,000 Descending Philadelphia TRACON
Tue 04:55:12 PM 39.7000 -75.5167 142° Southeast 156 180 2,000 -1,000 Descending Philadelphia TRACON
Tue 04:56:18 PM 39.6833 -75.5500 237° Southwest 117 135 900 -1,000 Descending Philadelphia TRACON

Login

Don't have an account? Register now (free) for customized features, flight alerts, and more!